Data for 06/02/2017

Time Sea-Level Adjusted Pressure Absolute Pressure Temperature Relative Humidity Dew Point   
(mb) (inHg) (mb) (inHg) (C) (F) (%) (C) (F)
00:05 1016 30 845 24.95 13 55.3 76 8.8 47.9
00:10 1016 30 845 24.95 13 55.5 75 8.8 47.8
00:15 1016 30 845 24.95 12.9 55.2 77 9 48.3
00:20 1016 30 845 24.95 12.4 54.2 79 8.9 47.9
00:25 1016 30 845 24.95 12.3 54.1 78 8.6 47.4
00:30 1016 30 845 24.95 12.4 54.3 78 8.6 47.5
00:35 1016 30 845 24.95 12.5 54.6 76 8.5 47.3
00:40 1016 30 845 24.95 12.8 55 75 8.5 47.4
00:45 1016 30 845 24.95 12.9 55.2 75 8.5 47.3
00:50 1016 30 845 24.95 12.9 55.1 75 8.6 47.4
00:55 1016 30 845 24.95 12.8 55 75 8.6 47.4
01:00 1016 30 845 24.95 12.7 54.9 74 8.3 47
01:05 1016 30 846 24.98 12.7 54.8 74 8.2 46.8
01:10 1016 30 846 24.98 12.7 54.9 73 8.1 46.6
01:15 1016 30 846 24.98 12.7 54.8 73 7.9 46.3
01:20 1016 30 846 24.98 12.7 54.8 74 8.1 46.6
01:25 1017 30.03 846 24.98 12.6 54.7 75 8.4 47
01:30 1017 30.03 846 24.98 12.6 54.7 75 8.4 47
01:35 1017 30.03 846 24.98 12.5 54.6 76 8.4 47.2
01:40 1017 30.03 846 24.98 12.5 54.5 77 8.6 47.5
01:45 1017 30.03 846 24.98 12.4 54.3 78 8.7 47.7
01:50 1017 30.03 846 24.98 12.3 54.2 78 8.6 47.5
01:55 1017 30.03 846 24.98 12.1 53.9 77 8.3 47
02:00 1017 30.03 846 24.98 12.2 53.9 76 8.2 46.7
02:05 1017 30.03 846 24.98 12.2 54 76 8 46.5
02:10 1017 30.03 846 24.98 12.3 54.1 75 8 46.4
02:15 1017 30.03 846 24.98 12.3 54.1 76 8.2 46.7
02:20 1017 30.03 846 24.98 12.1 53.8 78 8.5 47.3
02:25 1017 30.03 846 24.98 11.9 53.5 80 8.7 47.6
02:30 1017 30.03 846 24.98 11.7 53.1 78 8.1 46.6
02:35 1017 30.03 846 24.98 11.6 52.8 79 8 46.5
02:40 1017 30.03 846 24.98 11.4 52.6 79 8 46.4
02:45 1017 30.03 846 24.98 11.4 52.6 79 7.9 46.2
02:50 1017 30.03 847 25.01 11.5 52.6 78 7.8 46.1
02:55 1017 30.03 847 25.01 11.5 52.6 78 7.8 46.1
03:00 1018 30.06 847 25.01 11.4 52.6 78 7.8 46.1
03:05 1017 30.03 847 25.01 11.5 52.7 77 7.7 45.9
03:10 1017 30.03 847 25.01 11.6 52.9 76 7.6 45.6
03:15 1017 30.03 847 25.01 11.6 52.9 77 7.7 45.8
03:20 1017 30.03 847 25.01 11.7 53 77 7.8 46.1
03:25 1017 30.03 847 25.01 11.6 52.9 77 7.8 46.1
03:30 1017 30.03 847 25.01 11.5 52.7 78 7.8 46.1
03:35 1018 30.06 847 25.01 11.4 52.6 80 8.1 46.5
03:40 1018 30.06 847 25.01 11.4 52.5 79 7.9 46.2
03:45 1018 30.06 847 25.01 11.5 52.6 77 7.6 45.7
03:50 1018 30.06 847 25.01 11.6 52.9 78 7.9 46.1
03:55 1018 30.06 847 25.01 11.6 53 78 8 46.4
04:00 1018 30.06 847 25.01 11.5 52.7 80 8.1 46.7
04:05 1018 30.06 847 25.01 11.3 52.3 81 8.1 46.6
04:10 1018 30.06 847 25.01 11.3 52.3 80 8 46.4
04:15 1018 30.06 847 25.01 11.3 52.3 80 8 46.4
04:20 1018 30.06 847 25.01 11.4 52.5 81 8.2 46.8
04:25 1018 30.06 847 25.01 11.3 52.4 82 8.4 47.1
04:30 1018 30.06 847 25.01 11.3 52.3 82 8.3 47
04:35 1018 30.06 847 25.01 11.3 52.3 80 8 46.4
04:40 1018 30.06 847 25.01 11.4 52.6 79 8 46.3
04:45 1018 30.06 847 25.01 11.6 52.8 78 7.8 46.1
04:50 1018 30.06 847 25.01 11.6 52.8 78 7.9 46.3
04:55 1018 30.06 847 25.01 11.6 52.8 82 8.6 47.4
05:00 1018 30.06 848 25.04 11.5 52.6 83 8.7 47.6
05:05 1018 30.06 847 25.01 11.3 52.4 84 8.7 47.7
05:10 1018 30.06 848 25.04 11.2 52.2 84 8.7 47.7
05:15 1018 30.06 848 25.04 11.3 52.3 82 8.4 47
05:20 1018 30.06 848 25.04 11.3 52.4 84 8.8 47.8
05:25 1018 30.06 848 25.04 11.3 52.4 85 8.8 47.9
05:30 1018 30.06 848 25.04 11.2 52.2 85 8.9 48
05:35 1019 30.09 848 25.04 11.2 52.2 86 8.9 48
05:40 1019 30.09 848 25.04 11 51.8 86 8.8 47.8
05:45 1019 30.09 848 25.04 11 51.8 83 8.3 46.9
05:50 1019 30.09 848 25.04 11.1 52 84 8.5 47.3
05:55 1019 30.09 848 25.04 11.1 52 81 8 46.4
06:00 1019 30.09 848 25.04 11.3 52.3 81 8.2 46.8
06:05 1019 30.09 848 25.04 11.5 52.6 81 8.3 47
06:10 1019 30.09 848 25.04 11.6 52.8 77 7.6 45.7
06:15 1019 30.09 848 25.04 11.6 52.9 78 8 46.4
06:20 1019 30.09 848 25.04 11.6 52.8 78 7.8 46.1
06:25 1019 30.09 848 25.04 11.6 52.8 78 7.9 46.3
06:30 1019 30.09 848 25.04 11.5 52.7 79 8 46.3
06:35 1019 30.09 848 25.04 11.5 52.7 79 7.9 46.2
06:40 1019 30.09 848 25.04 11.5 52.6 79 8 46.4
06:45 1019 30.09 849 25.07 11.4 52.6 79 8 46.4
06:50 1019 30.09 849 25.07 11.4 52.5 77 7.6 45.7
06:55 1020 30.12 849 25.07 11.5 52.7 78 7.8 46
07:00 1020 30.12 849 25.07 11.5 52.6 78 7.9 46.2
07:05 1020 30.12 849 25.07 11.4 52.6 78 7.7 45.9
07:10 1020 30.12 849 25.07 11.2 52.1 79 7.7 45.9
07:15 1020 30.12 849 25.07 10.9 51.6 81 7.7 45.9
07:20 1020 30.12 849 25.07 10.7 51.3 81 7.7 45.8
07:25 1020 30.12 849 25.07 10.7 51.3 79 7.2 45
07:30 1020 30.12 849 25.07 11 51.8 77 7 44.7
07:35 1020 30.12 849 25.07 11.3 52.3 75 7 44.6
07:40 1020 30.12 849 25.07 11.5 52.7 74 7.1 44.8
07:45 1020 30.12 849 25.07 11.8 53.2 76 7.8 46
07:50 1020 30.12 849 25.07 11.9 53.4 78 8.3 46.9
07:55 1020 30.12 849 25.07 11.8 53.2 74 7.3 45.2
08:00 1020 30.12 849 25.07 12.5 54.5 71 7.5 45.5
08:05 1020 30.12 849 25.07 12.6 54.7 71 7.5 45.6
08:10 1020 30.12 849 25.07 12.7 54.8 69 7.3 45.1
08:15 1020 30.12 849 25.07 12.9 55.2 72 8.1 46.5
08:20 1020 30.12 849 25.07 13.1 55.6 67 7.2 45
08:25 1020 30.12 849 25.07 13 55.4 69 7.4 45.3
08:30 1020 30.12 849 25.07 13 55.4 67 7.1 44.8
08:35 1020 30.12 849 25.07 13 55.4 68 7.3 45.1
08:40 1020 30.12 849 25.07 13.1 55.6 66 6.9 44.4
08:45 1020 30.12 849 25.07 13.1 55.7 65 6.9 44.3
08:50 1020 30.12 849 25.07 13.2 55.7 66 7 44.6
08:55 1020 30.12 850 25.1 13.2 55.8 67 7.2 45
09:00 1020 30.12 850 25.1 13.6 56.4 65 7.1 44.7
09:05 1020 30.12 850 25.1 14 57.2 60 6.5 43.7
09:10 1020 30.12 850 25.1 14.4 57.9 61 7.1 44.7
09:15 1021 30.15 850 25.1 14.8 58.6 59 6.9 44.4
09:20 1021 30.15 850 25.1 14.9 58.9 59 7.1 44.8
09:25 1021 30.15 850 25.1 14.9 58.8 58 6.8 44.2
09:30 1021 30.15 850 25.1 15 59 57 6.6 43.9
09:35 1021 30.15 850 25.1 15 59 56 6.3 43.4
09:40 1021 30.15 850 25.1 15.3 59.6 55 6.4 43.5
09:45 1021 30.15 850 25.1 15.5 60 56 7 44.6
09:50 1021 30.15 850 25.1 15.7 60.2 56 7 44.6
09:55 1021 30.15 850 25.1 15.9 60.7 54 6.7 44
10:00 1021 30.15 850 25.1 15.9 60.6 55 7 44.6
10:05 1021 30.15 850 25.1 15.9 60.6 54 6.8 44.2
10:10 1021 30.15 850 25.1 16.4 61.5 54 7 44.7
10:15 1021 30.15 850 25.1 16.7 62 54 7.3 45.2
10:20 1021 30.15 850 25.1 16.8 62.3 52 6.9 44.5
10:25 1021 30.15 850 25.1 16.6 61.9 53 7.1 44.7
10:30 1021 30.15 850 25.1 16.1 60.9 55 7.2 45
10:35 1021 30.15 850 25.1 16.4 61.4 54 7.1 44.8
10:40 1021 30.15 850 25.1 16.3 61.3 56 7.5 45.5
10:45 1021 30.15 850 25.1 15.9 60.7 54 6.7 44
10:50 1021 30.15 850 25.1 16.5 61.7 52 6.8 44.2
10:55 1021 30.15 850 25.1 16.6 61.8 51 6.5 43.6
11:00 1021 30.15 850 25.1 16.8 62.2 50 6.5 43.7
11:05 1021 30.15 850 25.1 17.3 63.1 47 5.9 42.6
11:10 1021 30.15 850 25.1 17.6 63.7 46 6 42.8
11:15 1021 30.15 850 25.1 17.8 64.1 47 6.5 43.7
11:20 1021 30.15 850 25.1 17.6 63.6 45 5.6 42.1
11:25 1021 30.15 850 25.1 17.4 63.4 44 5.1 41.2
11:30 1021 30.15 850 25.1 17.5 63.5 42 4.6 40.4
11:35 1021 30.15 850 25.1 18 64.4 43 5.2 41.4
11:40 1021 30.15 850 25.1 18 64.4 40 4.3 39.7
11:45 1021 30.15 850 25.1 18.3 64.9 40 4.7 40.4
11:50 1021 30.15 850 25.1 18.5 65.3 42 5.4 41.7
11:55 1021 30.15 850 25.1 18.2 64.8 42 5.1 41.1
12:00 1020 30.12 850 25.1 19 66.3 40 5.2 41.4
12:05 1020 30.12 850 25.1 18.3 64.9 40 4.7 40.5
12:10 1020 30.12 850 25.1 18.2 64.8 41 5 40.9
12:15 1020 30.12 850 25.1 18.2 64.8 40 4.6 40.2
12:20 1020 30.12 850 25.1 19.2 66.6 38 4.6 40.2
12:25 1020 30.12 850 25.1 19.9 67.7 36 4.3 39.8
12:30 1020 30.12 850 25.1 20 68 36 4.8 40.6
12:35 1020 30.12 849 25.07 19.8 67.7 37 4.7 40.5
12:40 1020 30.12 849 25.07 19.1 66.3 39 5.1 41.2
12:45 1020 30.12 849 25.07 19.3 66.7 39 5.1 41.1
12:50 1020 30.12 849 25.07 19.7 67.5 39 5.4 41.7
12:55 1020 30.12 849 25.07 20.6 69.1 34 4.6 40.2
13:00 1020 30.12 849 25.07 20 68.1 34 3.8 38.9
13:05 1020 30.12 849 25.07 20.1 68.2 35 4.4 39.9
13:10 1020 30.12 849 25.07 20.9 69.6 33 4 39.3
13:15 1020 30.12 849 25.07 20.4 68.7 35 4.6 40.3
13:20 1020 30.12 849 25.07 20.5 68.9 34 4.1 39.4
13:25 1020 30.12 849 25.07 20.8 69.5 33 4.1 39.3
13:30 1020 30.12 849 25.07 20.4 68.7 34 4.2 39.5
13:35 1020 30.12 849 25.07 21 69.9 33 4.3 39.8
13:40 1020 30.12 849 25.07 21.5 70.6 32 4.3 39.7
13:45 1020 30.12 849 25.07 22.1 71.9 32 5 40.9
13:50 1020 30.12 849 25.07 21.9 71.4 31 4.4 39.9
13:55 1020 30.12 849 25.07 21.5 70.7 33 4.7 40.5
14:00 1020 30.12 849 25.07 21.6 70.8 31 3.7 38.6
14:05 1020 30.12 849 25.07 22.1 71.7 30 3.7 38.7
14:10 1020 30.12 849 25.07 22.3 72.1 29 3.4 38.1
14:15 1020 30.12 849 25.07 21.8 71.3 30 3.9 39
14:20 1019 30.09 849 25.07 22.5 72.4 27 3 37.4
14:25 1019 30.09 849 25.07 22.5 72.6 26 2.3 36.2
14:30 1019 30.09 849 25.07 22.3 72.2 24 0.7 33.3
14:35 1019 30.09 849 25.07 22.8 73.1 21 -0.1 31.8
14:40 1019 30.09 849 25.07 22.7 72.9 24 1.1 33.9
14:45 1019 30.09 849 25.07 22.8 73 24 1.3 34.3
14:50 1019 30.09 849 25.07 22.8 73.1 22 0.3 32.6
14:55 1019 30.09 848 25.04 22.6 72.6 23 0.7 33.3
15:00 1019 30.09 848 25.04 22.4 72.4 23 0.6 33.1
15:05 1019 30.09 848 25.04 22.8 73 21 -0.2 31.7
15:10 1019 30.09 848 25.04 22.6 72.6 22 0.2 32.3
15:15 1019 30.09 848 25.04 22.6 72.7 25 1.9 35.4
15:20 1019 30.09 848 25.04 23.1 73.5 26 2.5 36.5
15:25 1019 30.09 848 25.04 22.9 73.2 26 2.4 36.3
15:30 1019 30.09 848 25.04 23.1 73.5 23 0.9 33.7
15:35 1019 30.09 848 25.04 23.4 74 23 1.4 34.6
15:40 1019 30.09 848 25.04 23.6 74.4 25 2.5 36.5
15:45 1019 30.09 848 25.04 23.2 73.7 24 1.6 34.8
15:50 1019 30.09 848 25.04 23.3 73.9 24 2.1 35.7
15:55 1019 30.09 848 25.04 23.2 73.7 27 3.4 38.1
16:00 1019 30.09 848 25.04 22.8 73 26 2.7 36.8
16:05 1019 30.09 848 25.04 22.6 72.6 27 2.9 37.2
16:10 1019 30.09 848 25.04 22.8 73 26 2.7 36.9
16:15 1019 30.09 848 25.04 23 73.4 26 2.6 36.6
16:20 1019 30.09 848 25.04 23.1 73.5 27 3.3 38
16:25 1019 30.09 848 25.04 23.4 74.1 25 2.5 36.5
16:30 1019 30.09 848 25.04 23.5 74.4 24 2.3 36.1
16:35 1019 30.09 848 25.04 23.6 74.5 24 2 35.5
16:40 1019 30.09 848 25.04 23.4 74 24 1.7 35
16:45 1019 30.09 848 25.04 23.2 73.8 24 1.8 35.2
16:50 1019 30.09 848 25.04 23 73.4 24 1.7 35
16:55 1019 30.09 848 25.04 22.9 73.1 24 1.3 34.3
17:00 1019 30.09 848 25.04 22.9 73.2 24 1.5 34.8
17:05 1019 30.09 848 25.04 23.5 74.2 23 1.4 34.6
17:10 1019 30.09 848 25.04 23.3 73.9 23 1.1 34
17:15 1019 30.09 848 25.04 23.3 73.9 23 1.2 34.2
17:20 1019 30.09 848 25.04 23 73.4 23 0.7 33.2
17:25 1019 30.09 848 25.04 22.9 73.3 22 0.4 32.8
17:30 1019 30.09 848 25.04 23.2 73.7 23 1.3 34.3
17:35 1019 30.09 848 25.04 23 73.5 23 0.7 33.3
17:40 1019 30.09 848 25.04 23.1 73.5 23 1.2 34.1
17:45 1019 30.09 848 25.04 23.1 73.6 23 0.8 33.5
17:50 1019 30.09 848 25.04 23 73.4 22 0.2 32.4
17:55 1019 30.09 848 25.04 23.4 74.1 22 0.4 32.8
18:00 1019 30.09 848 25.04 23.1 73.7 21 -0.4 31.3
18:05 1019 30.09 848 25.04 23.1 73.5 21 -0.2 31.6
18:10 1019 30.09 848 25.04 23.1 73.5 21 0.1 32.1
18:15 1019 30.09 848 25.04 22.9 73.2 22 0.2 32.4
18:20 1019 30.09 848 25.04 23 73.4 22 0.6 33
18:25 1019 30.09 848 25.04 22.9 73.1 23 0.6 33
18:30 1019 30.09 848 25.04 22.9 73.1 22 0.3 32.6
18:35 1019 30.09 848 25.04 22.2 72 23 0.3 32.6
18:40 1019 30.09 848 25.04 22.1 71.8 23 0.3 32.5
18:45 1019 30.09 848 25.04 22.3 72.2 23 0.1 32.2
18:50 1019 30.09 848 25.04 22.6 72.7 21 -0.6 30.9
18:55 1019 30.09 848 25.04 23 73.4 21 -0.3 31.4
19:00 1019 30.09 848 25.04 22.8 73.1 21 -0.2 31.6
19:05 1019 30.09 848 25.04 22.9 73.1 20 -0.8 30.5
19:10 1019 30.09 848 25.04 22.7 72.8 21 -0.4 31.3
19:15 1019 30.09 848 25.04 22.6 72.7 21 -0.5 31.2
19:20 1019 30.09 848 25.04 22.4 72.4 22 0.1 32.2
19:25 1019 30.09 848 25.04 22.2 71.9 22 -0.6 30.9
19:30 1019 30.09 848 25.04 21.9 71.5 22 -0.4 31.3
19:35 1019 30.09 848 25.04 21.9 71.4 22 -0.8 30.6
19:40 1019 30.09 848 25.04 21.7 71.1 23 -0.4 31.3
19:45 1019 30.09 848 25.04 21.8 71.2 22 -0.5 31.1
19:50 1019 30.09 848 25.04 21.7 71 22 -0.8 30.6
19:55 1019 30.09 848 25.04 21.6 70.8 22 -0.6 30.8
20:00 1019 30.09 848 25.04 21.5 70.7 23 -0.4 31.3
20:05 1019 30.09 848 25.04 21.4 70.6 23 -0.1 31.8
20:10 1019 30.09 848 25.04 21.3 70.3 24 0.1 32.2
20:15 1019 30.09 848 25.04 21.2 70.2 24 0.3 32.5
20:20 1019 30.09 848 25.04 21.1 70 25 0.6 33
20:25 1019 30.09 848 25.04 21 69.7 25 0.5 33
20:30 1019 30.09 849 25.07 20.8 69.5 27 1.1 34
20:35 1019 30.09 849 25.07 20.7 69.2 27 1 33.8
20:40 1019 30.09 849 25.07 20.5 68.9 26 0.7 33.3
20:45 1019 30.09 849 25.07 20.4 68.7 27 0.9 33.7
20:50 1019 30.09 849 25.07 20.2 68.4 28 1.2 34.1
20:55 1019 30.09 849 25.07 20 68 28 1.2 34.2
21:00 1019 30.09 849 25.07 19.8 67.6 29 1.4 34.5
21:05 1019 30.09 849 25.07 19.6 67.3 29 1.1 33.9
21:10 1020 30.12 849 25.07 19.4 67 30 1.7 35.1
21:15 1020 30.12 849 25.07 19.2 66.6 31 2 35.6
21:20 1020 30.12 849 25.07 18.9 66 35 3.3 38
21:25 1020 30.12 849 25.07 18.1 64.5 39 4 39.2
21:30 1020 30.12 849 25.07 17.5 63.5 40 3.9 39.1
21:35 1020 30.12 849 25.07 17.3 63.1 42 4.2 39.5
21:40 1020 30.12 849 25.07 16.9 62.4 42 4.1 39.5
21:45 1020 30.12 849 25.07 16.6 61.8 42 3.6 38.5
21:50 1020 30.12 849 25.07 16.4 61.5 41 3.3 37.9
21:55 1020 30.12 849 25.07 16.4 61.5 41 3 37.5
22:00 1020 30.12 849 25.07 16.2 61.1 41 3.2 37.7
22:05 1020 30.12 849 25.07 15.8 60.4 44 3.8 38.8
22:10 1020 30.12 849 25.07 15.4 59.7 45 3.8 38.8
22:15 1020 30.12 849 25.07 15.1 59.2 46 3.5 38.3
22:20 1020 30.12 850 25.1 15 58.9 45 3.1 37.6
22:25 1020 30.12 850 25.1 15 59 43 2.8 37
22:30 1021 30.15 850 25.1 15 59 43 2.8 37
22:35 1021 30.15 850 25.1 14.7 58.5 47 3.7 38.7
22:40 1021 30.15 850 25.1 14.6 58.2 45 3 37.3
22:45 1021 30.15 850 25.1 14.5 58.1 44 2.4 36.2
22:50 1021 30.15 850 25.1 14.6 58.3 44 2.7 36.8
22:55 1021 30.15 850 25.1 14.6 58.2 47 3.4 38
23:00 1021 30.15 850 25.1 14.2 57.5 50 4 39.3
23:05 1021 30.15 850 25.1 13.2 55.7 51 3.2 37.8
23:10 1021 30.15 850 25.1 13.2 55.8 50 3.2 37.8
23:15 1021 30.15 850 25.1 13.3 56 50 3.3 37.9
23:20 1021 30.15 850 25.1 13.1 55.7 52 3.5 38.3
23:25 1021 30.15 850 25.1 12.8 55 51 3 37.3
23:30 1021 30.15 850 25.1 13 55.3 49 2.7 36.8
23:35 1021 30.15 850 25.1 13 55.4 49 2.6 36.6
23:40 1021 30.15 850 25.1 13.1 55.6 48 2.5 36.5
23:45 1021 30.15 850 25.1 13 55.3 49 2.7 36.9
23:50 1021 30.15 850 25.1 12.7 54.8 49 2.4 36.4
23:55 1021 30.15 850 25.1 13 55.4 47 2 35.6
24:00 1021 30.15 850 25.1 13.1 55.5 48 2.3 36.2